sensor_id;sensor_type;location;lat;lon;timestamp;pressure;altitude;pressure_sealevel;temperature;humidity
75945;BME280;64628;50.104;14.614;2022-12-17T00:02:14;98745.91;;;-1.04;45.41
75945;BME280;64628;50.104;14.614;2022-12-17T00:04:39;98750.02;;;-0.87;45.68
75945;BME280;64628;50.104;14.614;2022-12-17T00:07:04;98752.72;;;-1.23;45.58
75945;BME280;64628;50.104;14.614;2022-12-17T00:09:30;98754.16;;;-1.32;45.64
75945;BME280;64628;50.104;14.614;2022-12-17T00:11:55;98754.47;;;-0.71;45.49
75945;BME280;64628;50.104;14.614;2022-12-17T00:14:21;98754.77;;;-1.12;45.55
75945;BME280;64628;50.104;14.614;2022-12-17T00:16:46;98754.64;;;-1.11;45.40
75945;BME280;64628;50.104;14.614;2022-12-17T00:19:12;98751.64;;;-0.72;45.12
75945;BME280;64628;50.104;14.614;2022-12-17T00:21:37;98761.34;;;-1.25;45.63
75945;BME280;64628;50.104;14.614;2022-12-17T00:24:08;98762.32;;;-0.80;45.55
75945;BME280;64628;50.104;14.614;2022-12-17T00:26:28;98759.27;;;-1.28;46.12
75945;BME280;64628;50.104;14.614;2022-12-17T00:28:53;98762.37;;;-1.42;45.92
75945;BME280;64628;50.104;14.614;2022-12-17T00:31:18;98762.44;;;-1.17;46.12
75945;BME280;64628;50.104;14.614;2022-12-17T00:33:45;98770.74;;;-1.03;46.21
75945;BME280;64628;50.104;14.614;2022-12-17T00:36:09;98773.58;;;-1.62;46.44
75945;BME280;64628;50.104;14.614;2022-12-17T00:38:34;98778.84;;;-1.08;45.98
75945;BME280;64628;50.104;14.614;2022-12-17T00:41:00;98782.44;;;-1.16;45.66
75945;BME280;64628;50.104;14.614;2022-12-17T00:43:25;98779.26;;;-0.95;45.79
75945;BME280;64628;50.104;14.614;2022-12-17T00:45:51;98781.39;;;-1.03;46.05
75945;BME280;64628;50.104;14.614;2022-12-17T00:48:16;98783.05;;;-1.41;46.08
75945;BME280;64628;50.104;14.614;2022-12-17T00:50:42;98786.64;;;-1.37;46.05
75945;BME280;64628;50.104;14.614;2022-12-17T00:53:08;98796.18;;;-1.13;46.09
75945;BME280;64628;50.104;14.614;2022-12-17T00:55:33;98801.99;;;-1.10;45.63
75945;BME280;64628;50.104;14.614;2022-12-17T00:57:59;98802.67;;;-1.23;45.86
75945;BME280;64628;50.104;14.614;2022-12-17T01:00:24;98804.45;;;-0.70;45.70
75945;BME280;64628;50.104;14.614;2022-12-17T01:02:50;98807.16;;;-0.96;45.28
75945;BME280;64628;50.104;14.614;2022-12-17T01:05:16;98806.91;;;-0.66;45.40
75945;BME280;64628;50.104;14.614;2022-12-17T01:07:42;98808.99;;;-1.10;45.47
75945;BME280;64628;50.104;14.614;2022-12-17T01:10:07;98814.15;;;-0.62;45.39
75945;BME280;64628;50.104;14.614;2022-12-17T01:12:32;98817.29;;;-1.05;45.44
75945;BME280;64628;50.104;14.614;2022-12-17T01:14:58;98820.13;;;-0.87;45.43
75945;BME280;64628;50.104;14.614;2022-12-17T01:17:23;98826.84;;;-1.03;45.26
75945;BME280;64628;50.104;14.614;2022-12-17T01:19:49;98827.50;;;-0.68;45.35
75945;BME280;64628;50.104;14.614;2022-12-17T01:22:14;98830.27;;;-0.96;45.05
75945;BME280;64628;50.104;14.614;2022-12-17T01:24:40;98830.62;;;-0.81;45.15
75945;BME280;64628;50.104;14.614;2022-12-17T01:27:05;98833.32;;;-0.56;45.15
75945;BME280;64628;50.104;14.614;2022-12-17T01:29:30;98832.97;;;-0.96;45.17
75945;BME280;64628;50.104;14.614;2022-12-17T01:31:56;98833.31;;;-1.06;45.19
75945;BME280;64628;50.104;14.614;2022-12-17T01:34:21;98839.97;;;-1.16;45.31
75945;BME280;64628;50.104;14.614;2022-12-17T01:36:47;98843.35;;;-0.89;44.81
75945;BME280;64628;50.104;14.614;2022-12-17T01:39:13;98846.17;;;-0.81;44.69
75945;BME280;64628;50.104;14.614;2022-12-17T01:41:39;98848.26;;;-0.90;44.81
75945;BME280;64628;50.104;14.614;2022-12-17T01:46:33;98851.04;;;-0.91;44.66
75945;BME280;64628;50.104;14.614;2022-12-17T01:48:55;98849.29;;;-0.88;44.52
75945;BME280;64628;50.104;14.614;2022-12-17T01:51:20;98852.55;;;-1.03;44.60
75945;BME280;64628;50.104;14.614;2022-12-17T01:53:48;98853.49;;;-0.50;44.14
75945;BME280;64628;50.104;14.614;2022-12-17T01:56:11;98856.60;;;-0.73;44.33
75945;BME280;64628;50.104;14.614;2022-12-17T01:58:37;98865.32;;;-0.92;44.16
75945;BME280;64628;50.104;14.614;2022-12-17T02:01:02;98862.32;;;-0.72;44.00
75945;BME280;64628;50.104;14.614;2022-12-17T02:03:27;98864.35;;;-0.92;44.17
75945;BME280;64628;50.104;14.614;2022-12-17T02:06:00;98868.00;;;-0.93;44.11
75945;BME280;64628;50.104;14.614;2022-12-17T02:08:24;98872.39;;;-0.87;43.77
75945;BME280;64628;50.104;14.614;2022-12-17T02:10:48;98874.58;;;-0.76;43.67
75945;BME280;64628;50.104;14.614;2022-12-17T02:13:15;98880.30;;;-0.77;43.88
75945;BME280;64628;50.104;14.614;2022-12-17T02:15:42;98881.80;;;-0.84;44.10
75945;BME280;64628;50.104;14.614;2022-12-17T02:18:05;98882.17;;;-1.12;44.13
75945;BME280;64628;50.104;14.614;2022-12-17T02:20:29;98882.05;;;-0.77;43.89
75945;BME280;64628;50.104;14.614;2022-12-17T02:22:58;98883.59;;;-0.84;44.06
75945;BME280;64628;50.104;14.614;2022-12-17T02:25:20;98887.33;;;-0.81;44.12
75945;BME280;64628;50.104;14.614;2022-12-17T02:27:43;98886.92;;;-0.72;43.70
75945;BME280;64628;50.104;14.614;2022-12-17T02:30:09;98888.33;;;-0.95;43.91
75945;BME280;64628;50.104;14.614;2022-12-17T02:32:36;98896.06;;;-1.14;44.17
75945;BME280;64628;50.104;14.614;2022-12-17T02:35:00;98896.54;;;-1.27;44.66
75945;BME280;64628;50.104;14.614;2022-12-17T02:37:25;98895.58;;;-0.61;44.33
75945;BME280;64628;50.104;14.614;2022-12-17T02:39:50;98894.44;;;-0.99;44.11
75945;BME280;64628;50.104;14.614;2022-12-17T02:42:16;98896.16;;;-1.09;44.23
75945;BME280;64628;50.104;14.614;2022-12-17T02:44:42;98896.12;;;-1.20;44.47
75945;BME280;64628;50.104;14.614;2022-12-17T02:47:08;98896.61;;;-0.62;44.22
75945;BME280;64628;50.104;14.614;2022-12-17T02:49:31;98897.95;;;-0.79;44.08
75945;BME280;64628;50.104;14.614;2022-12-17T02:51:57;98902.27;;;-1.23;44.35
75945;BME280;64628;50.104;14.614;2022-12-17T02:54:24;98907.33;;;-1.04;44.21
75945;BME280;64628;50.104;14.614;2022-12-17T02:56:49;98905.86;;;-0.95;43.87
75945;BME280;64628;50.104;14.614;2022-12-17T02:59:13;98907.84;;;-1.04;44.11
75945;BME280;64628;50.104;14.614;2022-12-17T03:01:38;98908.21;;;-0.93;44.11
75945;BME280;64628;50.104;14.614;2022-12-17T03:04:04;98909.97;;;-1.02;44.37
75945;BME280;64628;50.104;14.614;2022-12-17T03:06:30;98915.35;;;-1.14;44.46
75945;BME280;64628;50.104;14.614;2022-12-17T03:08:55;98916.06;;;-1.09;44.31
75945;BME280;64628;50.104;14.614;2022-12-17T03:11:20;98918.13;;;-1.09;44.47
75945;BME280;64628;50.104;14.614;2022-12-17T03:13:46;98918.31;;;-1.21;44.32
75945;BME280;64628;50.104;14.614;2022-12-17T03:16:13;98922.32;;;-1.02;44.35
75945;BME280;64628;50.104;14.614;2022-12-17T03:18:37;98924.84;;;-1.05;44.83
75945;BME280;64628;50.104;14.614;2022-12-17T03:21:03;98926.81;;;-0.93;44.79
75945;BME280;64628;50.104;14.614;2022-12-17T03:23:28;98931.82;;;-0.86;44.54
75945;BME280;64628;50.104;14.614;2022-12-17T03:25:57;98932.57;;;-0.38;44.56
75945;BME280;64628;50.104;14.614;2022-12-17T03:28:19;98937.83;;;-0.91;44.66
75945;BME280;64628;50.104;14.614;2022-12-17T03:30:45;98937.81;;;-0.93;44.61
75945;BME280;64628;50.104;14.614;2022-12-17T03:33:10;98940.05;;;-0.77;44.86
75945;BME280;64628;50.104;14.614;2022-12-17T03:35:35;98942.39;;;-1.10;45.13
75945;BME280;64628;50.104;14.614;2022-12-17T03:38:06;98948.10;;;-0.94;44.91
75945;BME280;64628;50.104;14.614;2022-12-17T03:40:27;98949.19;;;-1.16;45.01
75945;BME280;64628;50.104;14.614;2022-12-17T03:42:52;98948.57;;;-1.13;45.42
75945;BME280;64628;50.104;14.614;2022-12-17T03:45:17;98954.85;;;-0.67;45.23
75945;BME280;64628;50.104;14.614;2022-12-17T03:47:43;98956.85;;;-1.06;45.41
75945;BME280;64628;50.104;14.614;2022-12-17T03:50:08;98962.61;;;-0.85;45.26
75945;BME280;64628;50.104;14.614;2022-12-17T03:52:34;98962.91;;;-1.05;45.52
75945;BME280;64628;50.104;14.614;2022-12-17T03:55:00;98962.69;;;-0.90;45.42
75945;BME280;64628;50.104;14.614;2022-12-17T03:57:25;98961.76;;;-0.81;45.83
75945;BME280;64628;50.104;14.614;2022-12-17T03:59:51;98964.01;;;-0.50;45.83
75945;BME280;64628;50.104;14.614;2022-12-17T04:02:16;98967.47;;;-0.87;46.09
75945;BME280;64628;50.104;14.614;2022-12-17T04:04:42;98970.96;;;-0.96;46.04
75945;BME280;64628;50.104;14.614;2022-12-17T04:07:08;98971.07;;;-1.04;46.24
75945;BME280;64628;50.104;14.614;2022-12-17T04:09:33;98974.35;;;-0.92;46.12
75945;BME280;64628;50.104;14.614;2022-12-17T04:11:59;98977.81;;;-0.84;46.42
75945;BME280;64628;50.104;14.614;2022-12-17T04:14:24;98983.01;;;-0.88;46.18
75945;BME280;64628;50.104;14.614;2022-12-17T04:16:49;98988.33;;;-0.91;46.27
75945;BME280;64628;50.104;14.614;2022-12-17T04:19:15;98996.65;;;-0.92;46.34
75945;BME280;64628;50.104;14.614;2022-12-17T04:21:40;98999.58;;;-0.98;46.38
75945;BME280;64628;50.104;14.614;2022-12-17T04:24:05;99004.08;;;-0.93;46.38
75945;BME280;64628;50.104;14.614;2022-12-17T04:26:31;99011.26;;;-0.88;46.35
75945;BME280;64628;50.104;14.614;2022-12-17T04:28:57;99016.13;;;-0.88;46.46
75945;BME280;64628;50.104;14.614;2022-12-17T04:31:22;99024.32;;;-0.53;46.79
75945;BME280;64628;50.104;14.614;2022-12-17T04:33:48;99020.71;;;-0.54;46.52
75945;BME280;64628;50.104;14.614;2022-12-17T04:36:14;99020.07;;;-0.81;46.63
75945;BME280;64628;50.104;14.614;2022-12-17T04:38:39;99022.21;;;-0.79;46.64
75945;BME280;64628;50.104;14.614;2022-12-17T04:41:04;99028.27;;;-1.00;47.03
75945;BME280;64628;50.104;14.614;2022-12-17T04:43:29;99028.82;;;-1.07;47.17
75945;BME280;64628;50.104;14.614;2022-12-17T04:45:55;99029.28;;;-0.78;47.16
75945;BME280;64628;50.104;14.614;2022-12-17T04:48:21;99033.38;;;-0.51;47.31
75945;BME280;64628;50.104;14.614;2022-12-17T04:50:46;99035.97;;;-1.12;47.51
75945;BME280;64628;50.104;14.614;2022-12-17T04:53:11;99036.74;;;-0.90;47.10
75945;BME280;64628;50.104;14.614;2022-12-17T04:55:37;99041.94;;;-0.90;47.24
75945;BME280;64628;50.104;14.614;2022-12-17T04:58:03;99047.39;;;-0.80;47.02
75945;BME280;64628;50.104;14.614;2022-12-17T05:00:28;99051.04;;;-0.91;47.18
75945;BME280;64628;50.104;14.614;2022-12-17T05:02:53;99049.88;;;-0.85;47.07
75945;BME280;64628;50.104;14.614;2022-12-17T05:05:19;99054.39;;;-0.90;47.62
75945;BME280;64628;50.104;14.614;2022-12-17T05:07:44;99060.92;;;-1.09;47.60
75945;BME280;64628;50.104;14.614;2022-12-17T05:10:09;99061.71;;;-0.99;47.42
75945;BME280;64628;50.104;14.614;2022-12-17T05:12:35;99065.11;;;-1.07;47.50
75945;BME280;64628;50.104;14.614;2022-12-17T05:15:00;99065.54;;;-0.74;47.42
75945;BME280;64628;50.104;14.614;2022-12-17T05:17:26;99076.05;;;-1.01;47.50
75945;BME280;64628;50.104;14.614;2022-12-17T05:19:51;99078.43;;;-0.98;47.50
75945;BME280;64628;50.104;14.614;2022-12-17T05:22:17;99080.91;;;-0.37;47.27
75945;BME280;64628;50.104;14.614;2022-12-17T05:24:42;99083.06;;;-0.81;47.16
75945;BME280;64628;50.104;14.614;2022-12-17T05:27:07;99087.79;;;-0.87;47.13
75945;BME280;64628;50.104;14.614;2022-12-17T05:29:33;99088.95;;;-0.41;47.33
75945;BME280;64628;50.104;14.614;2022-12-17T05:31:58;99096.27;;;-1.06;47.58
75945;BME280;64628;50.104;14.614;2022-12-17T05:34:24;99096.82;;;-0.44;47.40
75945;BME280;64628;50.104;14.614;2022-12-17T05:36:49;99098.67;;;-0.64;47.05
75945;BME280;64628;50.104;14.614;2022-12-17T05:39:14;99109.24;;;-1.00;47.55
75945;BME280;64628;50.104;14.614;2022-12-17T05:41:40;99111.47;;;-0.84;47.24
75945;BME280;64628;50.104;14.614;2022-12-17T05:44:06;99111.42;;;-0.78;47.01
75945;BME280;64628;50.104;14.614;2022-12-17T05:46:31;99115.61;;;-1.05;47.64
75945;BME280;64628;50.104;14.614;2022-12-17T05:48:57;99115.88;;;-0.90;47.41
75945;BME280;64628;50.104;14.614;2022-12-17T05:51:22;99115.27;;;-0.75;46.80
75945;BME280;64628;50.104;14.614;2022-12-17T05:53:48;99120.19;;;-0.80;47.06
75945;BME280;64628;50.104;14.614;2022-12-17T05:56:14;99124.81;;;-0.92;47.17
75945;BME280;64628;50.104;14.614;2022-12-17T05:58:39;99126.73;;;-0.90;47.18
75945;BME280;64628;50.104;14.614;2022-12-17T06:01:06;99127.07;;;-0.97;47.17
75945;BME280;64628;50.104;14.614;2022-12-17T06:03:30;99130.65;;;-0.94;47.01
75945;BME280;64628;50.104;14.614;2022-12-17T06:05:55;99133.12;;;-1.31;47.19
75945;BME280;64628;50.104;14.614;2022-12-17T06:08:20;99138.44;;;-0.87;46.80
75945;BME280;64628;50.104;14.614;2022-12-17T06:10:51;99143.14;;;-1.06;47.17
75945;BME280;64628;50.104;14.614;2022-12-17T06:13:11;99148.23;;;-1.03;47.14
75945;BME280;64628;50.104;14.614;2022-12-17T06:15:47;99148.95;;;-1.07;47.19
75945;BME280;64628;50.104;14.614;2022-12-17T06:18:01;99154.40;;;-0.85;46.77
75945;BME280;64628;50.104;14.614;2022-12-17T06:20:26;99154.86;;;-0.53;47.02
75945;BME280;64628;50.104;14.614;2022-12-17T06:22:58;99158.69;;;-0.79;47.12
75945;BME280;64628;50.104;14.614;2022-12-17T06:25:17;99164.57;;;-1.01;47.48
75945;BME280;64628;50.104;14.614;2022-12-17T06:27:43;99166.55;;;-1.06;47.22
75945;BME280;64628;50.104;14.614;2022-12-17T06:30:10;99168.92;;;-0.75;47.17
75945;BME280;64628;50.104;14.614;2022-12-17T06:32:35;99173.08;;;-0.92;47.13
75945;BME280;64628;50.104;14.614;2022-12-17T06:35:00;99174.76;;;-0.95;47.30
75945;BME280;64628;50.104;14.614;2022-12-17T06:37:26;99175.55;;;-0.78;47.05
75945;BME280;64628;50.104;14.614;2022-12-17T06:39:51;99178.38;;;-0.88;47.10
75945;BME280;64628;50.104;14.614;2022-12-17T06:42:17;99175.58;;;-0.83;46.96
75945;BME280;64628;50.104;14.614;2022-12-17T06:44:42;99177.09;;;-0.46;47.10
75945;BME280;64628;50.104;14.614;2022-12-17T06:47:08;99175.74;;;-0.95;47.43
75945;BME280;64628;50.104;14.614;2022-12-17T06:49:33;99180.84;;;-0.95;47.46
75945;BME280;64628;50.104;14.614;2022-12-17T06:51:59;99187.11;;;-1.06;47.61
75945;BME280;64628;50.104;14.614;2022-12-17T06:54:24;99185.29;;;-1.10;47.69
75945;BME280;64628;50.104;14.614;2022-12-17T06:56:49;99189.02;;;-1.19;47.95
75945;BME280;64628;50.104;14.614;2022-12-17T06:59:15;99188.95;;;-0.70;47.94
75945;BME280;64628;50.104;14.614;2022-12-17T07:01:40;99193.67;;;-1.02;47.76
75945;BME280;64628;50.104;14.614;2022-12-17T07:04:06;99199.57;;;-1.11;47.78
75945;BME280;64628;50.104;14.614;2022-12-17T07:06:31;99207.01;;;-0.81;47.83
75945;BME280;64628;50.104;14.614;2022-12-17T07:08:56;99214.46;;;-1.16;48.03
75945;BME280;64628;50.104;14.614;2022-12-17T07:11:21;99218.93;;;-0.99;47.93
75945;BME280;64628;50.104;14.614;2022-12-17T07:13:47;99222.67;;;-0.98;47.81
75945;BME280;64628;50.104;14.614;2022-12-17T07:16:12;99226.51;;;-0.95;47.87
75945;BME280;64628;50.104;14.614;2022-12-17T07:18:38;99226.94;;;-0.75;48.46
75945;BME280;64628;50.104;14.614;2022-12-17T07:21:03;99228.42;;;-0.57;48.17
75945;BME280;64628;50.104;14.614;2022-12-17T07:23:29;99230.25;;;-0.91;47.84
75945;BME280;64628;50.104;14.614;2022-12-17T07:25:56;99228.53;;;-0.74;47.66
75945;BME280;64628;50.104;14.614;2022-12-17T07:28:19;99233.95;;;-0.44;47.47
75945;BME280;64628;50.104;14.614;2022-12-17T07:30:44;99236.74;;;-0.66;47.48
75945;BME280;64628;50.104;14.614;2022-12-17T07:33:09;99237.55;;;-0.38;46.98
75945;BME280;64628;50.104;14.614;2022-12-17T07:35:35;99243.25;;;-0.36;46.88
75945;BME280;64628;50.104;14.614;2022-12-17T07:38:02;99251.01;;;-0.39;46.47
75945;BME280;64628;50.104;14.614;2022-12-17T07:40:26;99255.86;;;-0.10;46.34
75945;BME280;64628;50.104;14.614;2022-12-17T07:42:52;99252.77;;;-0.25;46.59
75945;BME280;64628;50.104;14.614;2022-12-17T07:45:17;99259.21;;;-0.12;46.43
75945;BME280;64628;50.104;14.614;2022-12-17T07:47:42;99262.70;;;0.01;46.30
75945;BME280;64628;50.104;14.614;2022-12-17T07:50:08;99264.49;;;-0.13;46.46
75945;BME280;64628;50.104;14.614;2022-12-17T07:52:33;99270.54;;;-0.26;46.67
75945;BME280;64628;50.104;14.614;2022-12-17T07:54:58;99278.51;;;-0.02;46.45
75945;BME280;64628;50.104;14.614;2022-12-17T07:57:24;99282.33;;;-0.12;46.54
75945;BME280;64628;50.104;14.614;2022-12-17T07:59:49;99288.09;;;-0.42;46.58
75945;BME280;64628;50.104;14.614;2022-12-17T08:02:15;99292.24;;;-0.19;46.31
75945;BME280;64628;50.104;14.614;2022-12-17T08:04:40;99290.65;;;0.02;46.43
75945;BME280;64628;50.104;14.614;2022-12-17T08:07:06;99291.00;;;-0.11;46.60
75945;BME280;64628;50.104;14.614;2022-12-17T08:09:31;99294.56;;;-0.13;46.21
75945;BME280;64628;50.104;14.614;2022-12-17T08:11:57;99298.30;;;0.20;46.12
75945;BME280;64628;50.104;14.614;2022-12-17T08:14:21;99303.31;;;0.31;45.99
75945;BME280;64628;50.104;14.614;2022-12-17T08:16:47;99309.38;;;0.23;46.08
75945;BME280;64628;50.104;14.614;2022-12-17T08:19:13;99310.15;;;0.34;46.11
75945;BME280;64628;50.104;14.614;2022-12-17T08:21:38;99316.57;;;-0.06;46.07
75945;BME280;64628;50.104;14.614;2022-12-17T08:24:05;99317.57;;;0.63;45.64
75945;BME280;64628;50.104;14.614;2022-12-17T08:26:30;99320.78;;;0.36;45.86
75945;BME280;64628;50.104;14.614;2022-12-17T08:28:55;99324.26;;;0.53;45.49
75945;BME280;64628;50.104;14.614;2022-12-17T08:31:23;99321.21;;;0.97;45.43
75945;BME280;64628;50.104;14.614;2022-12-17T08:33:46;99324.14;;;0.46;45.39
75945;BME280;64628;50.104;14.614;2022-12-17T08:36:10;99324.55;;;0.47;45.58
75945;BME280;64628;50.104;14.614;2022-12-17T08:38:36;99331.06;;;0.98;45.36
75945;BME280;64628;50.104;14.614;2022-12-17T08:41:02;99335.54;;;0.63;45.04
75945;BME280;64628;50.104;14.614;2022-12-17T08:43:27;99341.41;;;0.87;45.04
75945;BME280;64628;50.104;14.614;2022-12-17T08:45:53;99344.27;;;0.96;45.01
75945;BME280;64628;50.104;14.614;2022-12-17T08:48:18;99348.94;;;0.59;45.36
75945;BME280;64628;50.104;14.614;2022-12-17T08:50:43;99349.03;;;0.79;45.14
75945;BME280;64628;50.104;14.614;2022-12-17T08:53:09;99351.86;;;0.97;44.68
75945;BME280;64628;50.104;14.614;2022-12-17T08:55:34;99354.88;;;0.59;44.99
75945;BME280;64628;50.104;14.614;2022-12-17T08:57:59;99359.70;;;1.05;44.77
75945;BME280;64628;50.104;14.614;2022-12-17T09:00:26;99365.88;;;1.48;44.20
75945;BME280;64628;50.104;14.614;2022-12-17T09:02:55;99364.65;;;1.26;44.50
75945;BME280;64628;50.104;14.614;2022-12-17T09:05:16;99366.43;;;1.32;44.36
75945;BME280;64628;50.104;14.614;2022-12-17T09:07:41;99366.54;;;1.21;44.65
75945;BME280;64628;50.104;14.614;2022-12-17T09:10:12;99368.40;;;0.96;44.09
75945;BME280;64628;50.104;14.614;2022-12-17T09:12:33;99373.93;;;1.63;43.95
75945;BME280;64628;50.104;14.614;2022-12-17T09:14:58;99376.31;;;1.28;44.04
75945;BME280;64628;50.104;14.614;2022-12-17T09:17:23;99375.21;;;1.47;43.89
75945;BME280;64628;50.104;14.614;2022-12-17T09:19:49;99369.23;;;1.93;43.76
75945;BME280;64628;50.104;14.614;2022-12-17T09:22:15;99369.97;;;1.51;43.83
75945;BME280;64628;50.104;14.614;2022-12-17T09:24:41;99371.15;;;1.69;43.63
75945;BME280;64628;50.104;14.614;2022-12-17T09:27:05;99379.28;;;1.94;43.48
75945;BME280;64628;50.104;14.614;2022-12-17T09:29:31;99382.27;;;2.29;42.71
75945;BME280;64628;50.104;14.614;2022-12-17T09:31:56;99382.39;;;2.60;42.22
75945;BME280;64628;50.104;14.614;2022-12-17T09:34:22;99382.07;;;2.47;42.24
75945;BME280;64628;50.104;14.614;2022-12-17T09:36:47;99379.06;;;2.52;42.24
75945;BME280;64628;50.104;14.614;2022-12-17T09:39:12;99379.95;;;2.60;42.38
75945;BME280;64628;50.104;14.614;2022-12-17T09:41:44;99379.56;;;2.85;42.06
75945;BME280;64628;50.104;14.614;2022-12-17T09:44:07;99384.03;;;2.72;41.51
75945;BME280;64628;50.104;14.614;2022-12-17T09:46:33;99386.04;;;2.96;41.09
75945;BME280;64628;50.104;14.614;2022-12-17T09:49:01;99384.88;;;3.05;41.04
75945;BME280;64628;50.104;14.614;2022-12-17T09:51:22;99383.25;;;2.76;41.08
75945;BME280;64628;50.104;14.614;2022-12-17T09:53:48;99383.78;;;3.39;40.93
75945;BME280;64628;50.104;14.614;2022-12-17T09:56:12;99382.59;;;3.73;40.08
75945;BME280;64628;50.104;14.614;2022-12-17T09:58:38;99386.05;;;3.74;39.45
75945;BME280;64628;50.104;14.614;2022-12-17T10:01:02;99389.10;;;4.13;38.50
75945;BME280;64628;50.104;14.614;2022-12-17T10:03:29;99392.93;;;4.03;38.82
75945;BME280;64628;50.104;14.614;2022-12-17T10:05:53;99392.73;;;3.63;38.96
75945;BME280;64628;50.104;14.614;2022-12-17T10:08:19;99396.07;;;3.73;38.93
75945;BME280;64628;50.104;14.614;2022-12-17T10:10:45;99401.11;;;3.73;39.05
75945;BME280;64628;50.104;14.614;2022-12-17T10:13:12;99403.23;;;3.81;38.84
75945;BME280;64628;50.104;14.614;2022-12-17T10:15:34;99405.65;;;3.93;39.01
75945;BME280;64628;50.104;14.614;2022-12-17T10:18:05;99413.30;;;3.43;39.65
75945;BME280;64628;50.104;14.614;2022-12-17T10:20:32;99416.31;;;3.84;39.68
75945;BME280;64628;50.104;14.614;2022-12-17T10:22:51;99413.65;;;3.82;39.50
75945;BME280;64628;50.104;14.614;2022-12-17T10:25:19;99415.01;;;3.48;39.98
75945;BME280;64628;50.104;14.614;2022-12-17T10:27:42;99415.29;;;3.76;39.64
75945;BME280;64628;50.104;14.614;2022-12-17T10:30:14;99420.61;;;3.59;39.87
75945;BME280;64628;50.104;14.614;2022-12-17T10:32:33;99422.77;;;3.43;40.11
75945;BME280;64628;50.104;14.614;2022-12-17T10:34:58;99431.83;;;3.12;40.43
75945;BME280;64628;50.104;14.614;2022-12-17T10:37:29;99424.25;;;3.26;40.19
75945;BME280;64628;50.104;14.614;2022-12-17T10:39:55;99425.39;;;3.29;40.53
75945;BME280;64628;50.104;14.614;2022-12-17T10:42:21;99427.66;;;3.56;40.32
75945;BME280;64628;50.104;14.614;2022-12-17T10:44:40;99427.99;;;3.43;39.92
75945;BME280;64628;50.104;14.614;2022-12-17T10:47:10;99430.56;;;3.71;39.94
75945;BME280;64628;50.104;14.614;2022-12-17T10:49:30;99429.81;;;3.68;39.98
75945;BME280;64628;50.104;14.614;2022-12-17T10:51:59;99435.79;;;3.44;40.31
75945;BME280;64628;50.104;14.614;2022-12-17T10:54:24;99440.28;;;3.38;40.12
75945;BME280;64628;50.104;14.614;2022-12-17T10:56:51;99437.19;;;3.25;39.62
75945;BME280;64628;50.104;14.614;2022-12-17T10:59:12;99449.06;;;3.32;39.56
75945;BME280;64628;50.104;14.614;2022-12-17T11:01:38;99450.67;;;3.07;40.04
75945;BME280;64628;50.104;14.614;2022-12-17T11:04:02;99452.13;;;3.35;39.80
75945;BME280;64628;50.104;14.614;2022-12-17T11:06:30;99454.50;;;3.43;39.41
75945;BME280;64628;50.104;14.614;2022-12-17T11:08:53;99454.02;;;3.54;38.93
75945;BME280;64628;50.104;14.614;2022-12-17T11:11:19;99458.17;;;3.65;39.00
75945;BME280;64628;50.104;14.614;2022-12-17T11:13:46;99464.44;;;3.14;39.73
75945;BME280;64628;50.104;14.614;2022-12-17T11:16:15;99467.07;;;3.95;38.85
75945;BME280;64628;50.104;14.614;2022-12-17T11:18:41;99478.90;;;3.58;39.14
75945;BME280;64628;50.104;14.614;2022-12-17T11:21:05;99479.95;;;3.14;39.50
75945;BME280;64628;50.104;14.614;2022-12-17T11:23:25;99483.04;;;3.54;39.28
75945;BME280;64628;50.104;14.614;2022-12-17T11:25:55;99480.30;;;3.41;39.52
75945;BME280;64628;50.104;14.614;2022-12-17T11:28:20;99484.05;;;3.31;39.12
75945;BME280;64628;50.104;14.614;2022-12-17T11:30:48;99485.46;;;3.94;39.12
75945;BME280;64628;50.104;14.614;2022-12-17T11:33:12;99481.00;;;3.73;39.05
75945;BME280;64628;50.104;14.614;2022-12-17T11:35:39;99478.73;;;3.57;39.00
75945;BME280;64628;50.104;14.614;2022-12-17T11:38:04;99475.68;;;3.86;39.28
75945;BME280;64628;50.104;14.614;2022-12-17T11:40:28;99479.71;;;3.56;38.80
75945;BME280;64628;50.104;14.614;2022-12-17T11:42:54;99483.10;;;3.74;38.35
75945;BME280;64628;50.104;14.614;2022-12-17T11:45:22;99484.60;;;4.06;37.94
75945;BME280;64628;50.104;14.614;2022-12-17T11:47:45;99483.91;;;3.97;38.06
75945;BME280;64628;50.104;14.614;2022-12-17T11:50:14;99482.56;;;3.79;38.19
75945;BME280;64628;50.104;14.614;2022-12-17T11:52:35;99482.36;;;3.68;38.43
75945;BME280;64628;50.104;14.614;2022-12-17T11:55:00;99484.89;;;3.60;38.20
75945;BME280;64628;50.104;14.614;2022-12-17T11:57:26;99483.69;;;3.73;38.68
75945;BME280;64628;50.104;14.614;2022-12-17T11:59:52;99484.64;;;3.71;38.49
75945;BME280;64628;50.104;14.614;2022-12-17T12:02:24;99488.82;;;3.55;38.82
75945;BME280;64628;50.104;14.614;2022-12-17T12:07:09;99489.56;;;3.83;38.43
75945;BME280;64628;50.104;14.614;2022-12-17T12:09:34;99489.15;;;3.35;38.70
75945;BME280;64628;50.104;14.614;2022-12-17T12:11:59;99487.47;;;3.79;38.18
75945;BME280;64628;50.104;14.614;2022-12-17T12:14:28;99491.97;;;3.76;38.51
75945;BME280;64628;50.104;14.614;2022-12-17T12:16:50;99498.68;;;3.41;38.84
75945;BME280;64628;50.104;14.614;2022-12-17T12:19:17;99495.57;;;3.84;38.55
75945;BME280;64628;50.104;14.614;2022-12-17T12:21:39;99501.62;;;3.57;38.54
75945;BME280;64628;50.104;14.614;2022-12-17T12:24:10;99503.78;;;3.65;38.74
75945;BME280;64628;50.104;14.614;2022-12-17T12:26:31;99503.57;;;3.39;38.74
75945;BME280;64628;50.104;14.614;2022-12-17T12:28:56;99502.98;;;3.19;39.29
75945;BME280;64628;50.104;14.614;2022-12-17T12:31:25;99505.59;;;3.48;39.44
75945;BME280;64628;50.104;14.614;2022-12-17T12:33:49;99505.53;;;3.47;38.81
75945;BME280;64628;50.104;14.614;2022-12-17T12:36:10;99503.74;;;3.37;38.48
75945;BME280;64628;50.104;14.614;2022-12-17T12:38:37;99507.36;;;3.87;38.50
75945;BME280;64628;50.104;14.614;2022-12-17T12:41:05;99510.32;;;3.84;38.55
75945;BME280;64628;50.104;14.614;2022-12-17T12:43:28;99512.42;;;3.35;38.28
75945;BME280;64628;50.104;14.614;2022-12-17T12:45:56;99514.39;;;3.81;37.76
75945;BME280;64628;50.104;14.614;2022-12-17T12:48:25;99515.94;;;3.66;37.85